Time;durP1;ratioP1;P1;durP2;ratioP2;P2;SDS_P1;SDS_P2;PMS_P1;PMS_P2;Temp;Humidity;BMP_temperature;BMP_pressure;BME280_temperature;BME280_humidity;BME280_pressure;Samples;Min_cycle;Max_cycle;Signal;HPM_P1;HPM_P2
2023/04/24 00:01:07;;;;;;;;;;;;;;;26.79;41.16;93445.84;5053834;28;7643;-61
2023/04/24 00:03:33;;;;;;;;;;;;;;;26.79;41.67;93435.56;5053870;28;7254;-62
2023/04/24 00:06:07;;;;;;;;;;;;;;;26.82;41.16;93436.47;5054573;28;6988;-61
2023/04/24 00:08:39;;;;;;;;;;;;;;;26.81;41.12;93432.25;5054508;28;8756;-62
2023/04/24 00:11:05;;;;;;;;;;;;;;;26.81;41.30;93432.25;5013537;28;9015;-61
2023/04/24 00:13:31;;;;;;;;;;;;;;;26.82;41.21;93428.19;5030130;28;7286;-61
2023/04/24 00:15:59;;;;;;;;;;;;;;;26.83;41.01;93437.97;5048780;28;9294;-61
2023/04/24 00:18:27;;;;;;;;;;;;;;;26.82;41.24;93439.97;5070797;28;8866;-62
2023/04/24 00:20:53;;;;;;;;;;;;;;;26.78;41.22;93436.84;5070096;28;7511;-62
2023/04/24 00:23:19;;;;;;;;;;;;;;;26.80;41.30;93442.53;5051421;28;7299;-61
2023/04/24 00:25:47;;;;;;;;;;;;;;;26.82;40.96;93444.75;5049762;28;7331;-61
2023/04/24 00:28:15;;;;;;;;;;;;;;;26.79;41.15;93448.63;5033284;28;8974;-62
2023/04/24 00:30:43;;;;;;;;;;;;;;;26.82;41.49;93447.50;5050053;28;7031;-62
2023/04/24 00:33:20;;;;;;;;;;;;;;;26.80;41.26;93445.31;5038857;28;7063;-61
2023/04/24 00:35:59;;;;;;;;;;;;;;;26.79;41.05;93438.31;5031884;28;9004;-62
2023/04/24 00:38:26;;;;;;;;;;;;;;;26.77;41.09;93438.09;5017446;28;7221;-61
2023/04/24 00:41:31;;;;;;;;;;;;;;;26.78;40.96;93431.31;5015014;28;7251;-61
2023/04/24 00:43:57;;;;;;;;;;;;;;;26.79;41.42;93429.31;4972321;28;7043;-61
2023/04/24 00:46:24;;;;;;;;;;;;;;;26.78;41.24;93427.81;4992342;28;7036;-61
2023/04/24 00:48:51;;;;;;;;;;;;;;;26.76;41.49;93430.38;4992532;28;9613;-62
2023/04/24 00:51:24;;;;;;;;;;;;;;;26.78;41.20;93431.31;4992054;28;7301;-62
2023/04/24 00:53:53;;;;;;;;;;;;;;;26.77;41.25;93431.88;4990066;28;7233;-62
2023/04/24 00:56:30;;;;;;;;;;;;;;;26.78;40.93;93433.31;4977924;28;7217;-62
2023/04/24 00:59:24;;;;;;;;;;;;;;;26.76;40.99;93441.41;4977633;28;7030;-62
2023/04/24 01:01:53;;;;;;;;;;;;;;;26.77;41.13;93451.19;4993548;28;7360;-61
2023/04/24 01:04:54;;;;;;;;;;;;;;;26.77;41.09;93449.13;4970241;28;7116;-61
2023/04/24 01:07:20;;;;;;;;;;;;;;;26.75;40.90;93437.19;4974596;28;9053;-62
2023/04/24 01:09:58;;;;;;;;;;;;;;;26.76;41.18;93442.16;4958046;28;8268;-61
2023/04/24 01:12:24;;;;;;;;;;;;;;;26.75;41.42;93443.41;4958061;28;7061;-62
2023/04/24 01:15:08;;;;;;;;;;;;;;;26.73;41.13;93434.94;4957047;28;9015;-61
2023/04/24 01:17:46;;;;;;;;;;;;;;;26.71;40.91;93437.47;4972235;28;7364;-62
2023/04/24 01:20:26;;;;;;;;;;;;;;;26.71;41.87;93436.75;5026905;28;7269;-62
2023/04/24 01:22:54;;;;;;;;;;;;;;;26.70;41.46;93432.50;4976633;28;7339;-61
2023/04/24 01:25:22;;;;;;;;;;;;;;;26.71;41.44;93434.72;5009584;28;7266;-61
2023/04/24 01:27:53;;;;;;;;;;;;;;;26.72;41.28;93438.22;5017176;28;9520;-62
2023/04/24 01:30:34;;;;;;;;;;;;;;;26.71;41.11;93436.75;5012882;28;8488;-61
2023/04/24 01:33:32;;;;;;;;;;;;;;;26.71;41.18;93429.22;4996743;28;7106;-62
2023/04/24 01:36:31;;;;;;;;;;;;;;;26.70;41.22;93432.50;4957982;28;7121;-61
2023/04/24 01:39:25;;;;;;;;;;;;;;;26.70;41.71;93436.03;4937895;28;7483;-62
2023/04/24 01:42:05;;;;;;;;;;;;;;;26.72;41.54;93444.50;4940567;28;7206;-62
2023/04/24 01:44:37;;;;;;;;;;;;;;;26.74;40.84;93444.72;4933235;29;6981;-61
2023/04/24 01:47:06;;;;;;;;;;;;;;;26.71;41.26;93433.97;4934734;29;9548;-62
2023/04/24 01:49:35;;;;;;;;;;;;;;;26.70;41.09;93438.03;4947549;28;7129;-62
2023/04/24 01:52:01;;;;;;;;;;;;;;;26.74;41.33;93441.97;4901766;29;8154;-61
2023/04/24 01:54:27;;;;;;;;;;;;;;;26.72;40.91;93441.72;4919320;29;9006;-62
2023/04/24 01:57:09;;;;;;;;;;;;;;;26.72;41.50;93447.25;4935035;29;9176;-62
2023/04/24 01:59:36;;;;;;;;;;;;;;;26.73;41.41;93442.50;4946326;28;9685;-61
2023/04/24 02:02:03;;;;;;;;;;;;;;;26.73;41.06;93442.50;4937477;28;7042;-61
2023/04/24 02:04:29;;;;;;;;;;;;;;;26.72;40.92;93450.00;4953990;28;9041;-61
2023/04/24 02:06:56;;;;;;;;;;;;;;;26.72;40.80;93446.50;4952487;28;9321;-61
2023/04/24 02:09:22;;;;;;;;;;;;;;;26.71;41.40;93445.00;4926616;29;9132;-62
2023/04/24 02:11:52;;;;;;;;;;;;;;;26.73;41.24;93448.03;4952710;28;8354;-62
2023/04/24 02:14:18;;;;;;;;;;;;;;;26.72;41.87;93441.00;4995313;28;7222;-62
2023/04/24 02:16:54;;;;;;;;;;;;;;;26.73;41.13;93434.94;5049151;28;8803;-62
2023/04/24 02:19:21;;;;;;;;;;;;;;;26.73;41.26;93443.22;5031973;28;7194;-62
2023/04/24 02:21:54;;;;;;;;;;;;;;;26.74;40.78;93449.50;5048955;28;7184;-62
2023/04/24 02:24:26;;;;;;;;;;;;;;;26.72;41.43;93441.72;5048313;28;7235;-62
2023/04/24 02:27:02;;;;;;;;;;;;;;;26.74;41.41;93443.97;5049907;28;9007;-62
2023/04/24 02:30:00;;;;;;;;;;;;;;;26.73;40.95;93448.03;5045683;28;7291;-62
2023/04/24 02:32:33;;;;;;;;;;;;;;;26.70;41.06;93438.78;5014177;28;7283;-62
2023/04/24 02:35:04;;;;;;;;;;;;;;;26.71;41.33;93433.97;5046412;28;6879;-62
2023/04/24 02:37:37;;;;;;;;;;;;;;;26.71;41.18;93426.44;5013415;28;7029;-62
2023/04/24 02:40:16;;;;;;;;;;;;;;;26.70;41.37;93432.50;5019844;28;7017;-61
2023/04/24 02:42:49;;;;;;;;;;;;;;;26.70;40.94;93427.75;5033201;28;7330;-62
2023/04/24 02:45:16;;;;;;;;;;;;;;;26.69;41.20;93436.53;5049333;28;7055;-61
2023/04/24 02:47:51;;;;;;;;;;;;;;;26.69;41.32;93436.53;5049700;28;8809;-62
2023/04/24 02:50:52;;;;;;;;;;;;;;;26.71;41.34;93434.72;5028446;28;9245;-62
2023/04/24 02:53:17;;;;;;;;;;;;;;;26.72;40.79;93432.72;4957095;28;7390;-62
2023/04/24 02:56:02;;;;;;;;;;;;;;;26.73;41.03;93437.00;4957036;28;7019;-62
2023/04/24 02:58:37;;;;;;;;;;;;;;;26.73;41.31;93439.75;4973020;28;7055;-62
2023/04/24 03:01:12;;;;;;;;;;;;;;;26.72;40.83;93438.22;4964121;28;9489;-62
2023/04/24 03:03:47;;;;;;;;;;;;;;;26.73;40.79;93434.94;4992419;28;7500;-62
2023/04/24 03:06:46;;;;;;;;;;;;;;;26.69;41.41;93426.25;4976645;28;8806;-62
2023/04/24 03:09:42;;;;;;;;;;;;;;;26.69;40.95;93423.50;4937907;29;7260;-62
2023/04/24 03:12:20;;;;;;;;;;;;;;;26.68;41.43;93419.28;4891375;29;8857;-62
2023/04/24 03:14:58;;;;;;;;;;;;;;;26.68;41.36;93416.50;4880991;29;7118;-62
2023/04/24 03:17:30;;;;;;;;;;;;;;;26.70;41.49;93413.94;4880947;29;7049;-62
2023/04/24 03:20:29;;;;;;;;;;;;;;;26.69;40.80;93408.97;4896744;29;7198;-62
2023/04/24 03:23:21;;;;;;;;;;;;;;;26.70;40.87;93411.19;4878726;29;7266;-62
2023/04/24 03:25:48;;;;;;;;;;;;;;;26.70;41.28;93410.44;4895660;29;9230;-62
2023/04/24 03:28:33;;;;;;;;;;;;;;;26.69;40.96;93408.97;4902140;29;9231;-62
2023/04/24 03:31:00;;;;;;;;;;;;;;;26.69;40.95;93414.47;4918478;29;7605;-62
2023/04/24 03:33:35;;;;;;;;;;;;;;;26.68;41.26;93415.78;4917969;29;7118;-62
2023/04/24 03:36:18;;;;;;;;;;;;;;;26.66;41.47;93418.34;4934138;29;7882;-62
2023/04/24 03:38:54;;;;;;;;;;;;;;;26.64;41.39;93413.34;4926783;29;9110;-62
2023/04/24 03:41:30;;;;;;;;;;;;;;;26.66;40.74;93412.81;4937290;29;9811;-62
2023/04/24 03:44:09;;;;;;;;;;;;;;;26.66;41.21;93419.06;4939640;28;7620;-62
2023/04/24 03:46:55;;;;;;;;;;;;;;;26.66;40.97;93415.56;4956560;28;7317;-62
2023/04/24 03:49:22;;;;;;;;;;;;;;;26.66;41.09;93418.34;4971746;28;9317;-62
2023/04/24 03:51:48;;;;;;;;;;;;;;;26.62;41.39;93409.66;4975624;28;9616;-62
2023/04/24 03:54:19;;;;;;;;;;;;;;;26.65;41.28;93419.59;4959478;28;8693;-62
2023/04/24 03:56:48;;;;;;;;;;;;;;;26.65;41.31;93423.09;4960091;28;9273;-62
2023/04/24 03:59:49;;;;;;;;;;;;;;;26.64;41.50;93412.63;5008043;28;9388;-61
2023/04/24 04:02:34;;;;;;;;;;;;;;;26.63;41.50;93420.16;4957540;28;9047;-62
2023/04/24 04:05:00;;;;;;;;;;;;;;;26.64;41.44;93415.38;4975568;28;9334;-62
2023/04/24 04:07:30;;;;;;;;;;;;;;;26.64;41.41;93407.81;4975814;28;9094;-62
2023/04/24 04:10:06;;;;;;;;;;;;;;;26.64;41.42;93415.38;4975553;28;7158;-62
2023/04/24 04:12:36;;;;;;;;;;;;;;;26.63;41.38;93416.66;4975969;28;9107;-62
2023/04/24 04:15:22;;;;;;;;;;;;;;;26.63;41.37;93425.66;4987764;28;7363;-62
2023/04/24 04:18:00;;;;;;;;;;;;;;;26.59;41.46;93417.00;4991978;28;7095;-62
2023/04/24 04:20:46;;;;;;;;;;;;;;;26.63;41.16;93427.69;4991857;28;8929;-61
2023/04/24 04:23:12;;;;;;;;;;;;;;;26.62;41.27;93426.22;4991122;28;7209;-62
2023/04/24 04:25:57;;;;;;;;;;;;;;;26.61;41.02;93430.97;4975221;28;9040;-62
2023/04/24 04:28:37;;;;;;;;;;;;;;;26.57;41.59;93427.84;4991676;28;9069;-62
2023/04/24 04:31:07;;;;;;;;;;;;;;;26.58;41.56;93429.28;4975387;28;9528;-62
2023/04/24 04:33:42;;;;;;;;;;;;;;;26.59;41.40;93435.56;4974717;28;8577;-62
2023/04/24 04:36:09;;;;;;;;;;;;;;;26.59;41.47;93432.81;5002898;28;7208;-62
2023/04/24 04:38:40;;;;;;;;;;;;;;;26.58;41.34;93426.53;5051521;28;7174;-62
2023/04/24 04:41:26;;;;;;;;;;;;;;;26.60;41.32;93437.06;5034696;28;9130;-62
2023/04/24 04:44:00;;;;;;;;;;;;;;;26.60;41.31;93440.53;5031587;28;7053;-62
2023/04/24 04:46:38;;;;;;;;;;;;;;;26.59;41.04;93447.34;5048251;28;7822;-62
2023/04/24 04:49:41;;;;;;;;;;;;;;;26.59;41.60;93450.09;5047983;28;7068;-62
2023/04/24 04:52:27;;;;;;;;;;;;;;;26.57;41.37;93452.66;5030333;28;7203;-62
2023/04/24 04:55:02;;;;;;;;;;;;;;;26.60;41.47;93456.34;5011908;28;8290;-62
2023/04/24 04:57:39;;;;;;;;;;;;;;;26.56;41.22;93455.94;5016974;28;9439;-62
2023/04/24 05:00:07;;;;;;;;;;;;;;;26.58;41.33;93454.13;5050459;28;8817;-62
2023/04/24 05:02:53;;;;;;;;;;;;;;;26.59;41.54;93463.13;5049966;28;8980;-62
2023/04/24 05:05:49;;;;;;;;;;;;;;;26.60;41.65;93464.63;5033250;28;8893;-62
2023/04/24 05:08:30;;;;;;;;;;;;;;;26.57;41.13;93469.19;4997155;28;7037;-62
2023/04/24 05:10:56;;;;;;;;;;;;;;;26.57;41.63;93469.19;5013329;28;7340;-62
2023/04/24 05:13:41;;;;;;;;;;;;;;;26.59;41.55;93476.94;5012726;28;7045;-62
2023/04/24 05:16:41;;;;;;;;;;;;;;;26.59;41.17;93491.47;4997059;28;9354;-62
2023/04/24 05:19:17;;;;;;;;;;;;;;;26.58;41.42;93489.97;4960839;28;9460;-62
2023/04/24 05:21:46;;;;;;;;;;;;;;;26.58;41.18;93497.50;4935360;29;8589;-62
2023/04/24 05:24:32;;;;;;;;;;;;;;;26.58;41.68;93509.28;4930916;28;7398;-62
2023/04/24 05:26:59;;;;;;;;;;;;;;;26.57;41.59;93507.06;4954751;28;9370;-62
2023/04/24 05:29:33;;;;;;;;;;;;;;;26.58;41.57;93523.06;4954915;28;7031;-62
2023/04/24 05:32:16;;;;;;;;;;;;;;;26.57;41.02;93529.13;4954747;28;7269;-62
2023/04/24 05:35:08;;;;;;;;;;;;;;;26.58;41.23;93541.63;4945428;28;7057;-62
2023/04/24 05:37:34;;;;;;;;;;;;;;;26.56;41.66;93555.97;4954525;28;9413;-62
2023/04/24 05:40:10;;;;;;;;;;;;;;;26.58;41.49;93558.19;4973263;28;7865;-61
2023/04/24 05:42:38;;;;;;;;;;;;;;;26.58;41.20;93558.91;4973758;28;8837;-61
2023/04/24 05:45:17;;;;;;;;;;;;;;;26.58;41.87;93561.69;4986831;28;7020;-62
2023/04/24 05:47:44;;;;;;;;;;;;;;;26.57;41.03;93565.72;4993800;28;8720;-61
2023/04/24 05:50:24;;;;;;;;;;;;;;;26.55;41.17;93571.03;4976903;28;7322;-62
2023/04/24 05:53:11;;;;;;;;;;;;;;;26.58;41.47;93574.72;4993112;28;7115;-62
2023/04/24 05:55:38;;;;;;;;;;;;;;;26.58;41.24;93577.47;5044332;28;9066;-62
2023/04/24 05:58:04;;;;;;;;;;;;;;;26.58;41.67;93575.47;5014323;28;8438;-61
2023/04/24 06:01:00;;;;;;;;;;;;;;;26.58;41.21;93571.97;5030041;28;9288;-61
2023/04/24 06:03:28;;;;;;;;;;;;;;;26.58;41.42;93591.28;5052307;28;7022;-62
2023/04/24 06:06:15;;;;;;;;;;;;;;;26.58;41.44;93575.47;5067725;28;7222;-62
2023/04/24 06:08:46;;;;;;;;;;;;;;;26.58;41.17;93577.47;5014224;28;8208;-62
2023/04/24 06:11:40;;;;;;;;;;;;;;;26.58;41.01;93578.22;5046129;28;7091;-62
2023/04/24 06:14:30;;;;;;;;;;;;;;;26.59;41.82;93578.97;5028817;28;8702;-61
2023/04/24 06:16:59;;;;;;;;;;;;;;;26.57;41.29;93587.03;5041651;28;7050;-61
2023/04/24 06:19:36;;;;;;;;;;;;;;;26.54;41.44;93585.34;5021354;28;7166;-62
2023/04/24 06:22:02;;;;;;;;;;;;;;;26.55;41.17;93575.81;5046966;28;6909;-61
2023/04/24 06:24:29;;;;;;;;;;;;;;;26.57;41.87;93578.78;5030383;28;9800;-62
2023/04/24 06:26:58;;;;;;;;;;;;;;;26.57;41.65;93579.53;5046484;28;7477;-61
2023/04/24 06:29:24;;;;;;;;;;;;;;;26.55;41.11;93576.56;5030433;28;7036;-62
2023/04/24 06:31:54;;;;;;;;;;;;;;;26.57;41.44;93581.53;5046434;28;8859;-62
2023/04/24 06:34:20;;;;;;;;;;;;;;;26.57;41.14;93582.28;5027345;28;7050;-62
2023/04/24 06:37:05;;;;;;;;;;;;;;;26.56;41.22;93571.75;5034874;28;7148;-62
2023/04/24 06:39:33;;;;;;;;;;;;;;;26.57;41.42;93579.53;5020030;28;7046;-62
2023/04/24 06:42:00;;;;;;;;;;;;;;;26.55;41.55;93575.81;4999122;28;7375;-61
2023/04/24 06:44:28;;;;;;;;;;;;;;;26.56;41.39;93574.53;5014990;28;7222;-61
2023/04/24 06:46:55;;;;;;;;;;;;;;;26.53;41.58;93573.59;5046855;28;7208;-61
2023/04/24 06:49:28;;;;;;;;;;;;;;;26.56;41.22;93578.03;5030331;28;9468;-62
2023/04/24 06:51:56;;;;;;;;;;;;;;;26.58;41.11;93577.47;5048595;28;9216;-62
2023/04/24 06:54:21;;;;;;;;;;;;;;;26.57;41.50;93584.28;5051730;28;7480;-61
2023/04/24 06:56:57;;;;;;;;;;;;;;;26.56;41.66;93583.53;5044476;28;8781;-62
2023/04/24 06:59:38;;;;;;;;;;;;;;;26.56;41.25;93582.78;5014807;28;9041;-62
2023/04/24 07:02:07;;;;;;;;;;;;;;;26.57;42.08;93581.53;5031845;28;7226;-62
2023/04/24 07:04:53;;;;;;;;;;;;;;;26.55;41.28;93584.84;5016901;28;7105;-62
2023/04/24 07:07:32;;;;;;;;;;;;;;;26.54;41.90;93586.09;5017132;28;8705;-61
2023/04/24 07:10:28;;;;;;;;;;;;;;;26.56;41.51;93582.78;5017674;28;7346;-62
2023/04/24 07:13:11;;;;;;;;;;;;;;;26.54;41.25;93568.81;4960608;28;9058;-62
2023/04/24 07:15:56;;;;;;;;;;;;;;;26.54;41.70;93579.84;4960410;28;7058;-62
2023/04/24 07:18:23;;;;;;;;;;;;;;;26.55;41.43;93603.38;4979816;28;7341;-61
2023/04/24 07:20:50;;;;;;;;;;;;;;;26.55;41.43;93608.91;4978409;28;7495;-62
2023/04/24 07:23:17;;;;;;;;;;;;;;;26.53;41.75;93614.97;4995545;28;7350;-62
2023/04/24 07:25:45;;;;;;;;;;;;;;;26.52;41.91;93624.50;4995979;28;7273;-62
2023/04/24 07:28:21;;;;;;;;;;;;;;;26.53;42.09;93631.50;4978971;28;7982;-61
2023/04/24 07:31:35;;;;;;;;;;;;;;;26.54;41.59;93638.50;4972050;28;7264;-61
2023/04/24 07:34:45;;;;;;;;;;;;;;;26.55;41.66;93630.97;4960144;28;7381;-62
2023/04/24 07:37:20;;;;;;;;;;;;;;;26.50;41.76;93637.34;4960434;28;9259;-61
2023/04/24 07:39:48;;;;;;;;;;;;;;;26.53;41.59;93636.28;4962068;28;7160;-61
2023/04/24 07:42:16;;;;;;;;;;;;;;;26.53;41.13;93639.03;4955751;28;9005;-61
2023/04/24 07:45:13;;;;;;;;;;;;;;;26.54;41.71;93623.97;4940585;28;7128;-61
2023/04/24 07:47:43;;;;;;;;;;;;;;;26.50;41.69;93618.78;4902718;29;8619;-61
2023/04/24 07:50:20;;;;;;;;;;;;;;;26.52;41.93;93627.25;4934840;29;9027;-61
2023/04/24 07:52:56;;;;;;;;;;;;;;;26.52;41.21;93623.75;4937766;29;7037;-61
2023/04/24 07:55:31;;;;;;;;;;;;;;;26.52;41.68;93626.50;4923164;28;7173;-61
2023/04/24 07:58:08;;;;;;;;;;;;;;;26.55;41.88;93636.50;4955936;28;7184;-61
2023/04/24 08:00:43;;;;;;;;;;;;;;;26.55;41.27;93626.19;4956111;28;7136;-61
2023/04/24 08:03:55;;;;;;;;;;;;;;;26.56;41.84;93624.16;4956144;28;7276;-62
2023/04/24 08:06:23;;;;;;;;;;;;;;;26.58;41.47;93627.13;4955980;28;8704;-62
2023/04/24 08:08:53;;;;;;;;;;;;;;;26.59;41.66;93625.84;4955482;28;7030;-62
2023/04/24 08:11:22;;;;;;;;;;;;;;;26.59;41.33;93636.91;4939446;28;9334;-62
2023/04/24 08:14:01;;;;;;;;;;;;;;;26.61;41.51;93645.38;4936374;29;7324;-62
2023/04/24 08:16:43;;;;;;;;;;;;;;;26.61;41.08;93640.59;4920853;29;7263;-62
2023/04/24 08:19:19;;;;;;;;;;;;;;;26.62;41.73;93638.59;4936970;29;8993;-62
2023/04/24 08:21:48;;;;;;;;;;;;;;;26.62;41.56;93638.59;4922004;29;7032;-62
2023/04/24 08:24:45;;;;;;;;;;;;;;;26.62;41.05;93639.31;4955621;28;7611;-62
2023/04/24 08:27:14;;;;;;;;;;;;;;;26.64;41.31;93645.03;4939615;28;7762;-62
2023/04/24 08:29:41;;;;;;;;;;;;;;;26.66;41.37;93642.50;4956126;28;7233;-62
2023/04/24 08:32:17;;;;;;;;;;;;;;;26.69;41.46;93643.44;4939763;28;9071;-62
2023/04/24 08:34:43;;;;;;;;;;;;;;;26.68;41.11;93650.97;4949970;28;7561;-62
2023/04/24 08:37:11;;;;;;;;;;;;;;;26.68;41.21;93656.50;4925762;28;7244;-62
2023/04/24 08:39:47;;;;;;;;;;;;;;;26.66;41.52;93659.06;4937780;28;8217;-62
2023/04/24 08:42:20;;;;;;;;;;;;;;;26.67;40.89;93665.28;4943823;28;7128;-62
2023/04/24 08:44:57;;;;;;;;;;;;;;;26.69;41.40;93668.25;4977462;28;7308;-62
2023/04/24 08:47:25;;;;;;;;;;;;;;;26.69;40.62;93665.50;4994333;28;7022;-62
2023/04/24 08:49:53;;;;;;;;;;;;;;;26.69;41.52;93679.28;4994301;28;7284;-62
2023/04/24 08:52:44;;;;;;;;;;;;;;;26.69;41.17;93673.78;4993710;28;7730;-62
2023/04/24 08:55:17;;;;;;;;;;;;;;;26.69;41.04;93679.28;4974638;28;7237;-62
2023/04/24 08:58:01;;;;;;;;;;;;;;;26.68;41.27;93683.34;4974908;28;9137;-62
2023/04/24 09:00:39;;;;;;;;;;;;;;;26.69;41.03;93679.28;4958623;28;7033;-62
2023/04/24 09:03:36;;;;;;;;;;;;;;;26.68;41.18;93673.06;4987296;28;7122;-62
2023/04/24 09:06:34;;;;;;;;;;;;;;;26.68;40.52;93683.34;4965018;28;7183;-62
2023/04/24 09:09:33;;;;;;;;;;;;;;;26.66;40.71;93685.91;4955113;28;9233;-62
2023/04/24 09:12:17;;;;;;;;;;;;;;;26.67;41.38;93690.88;4955336;28;8733;-62
2023/04/24 09:15:05;;;;;;;;;;;;;;;26.62;40.78;93685.47;4954805;28;7492;-62
2023/04/24 09:17:41;;;;;;;;;;;;;;;26.64;40.93;93705.00;4954666;28;7050;-62
2023/04/24 09:20:31;;;;;;;;;;;;;;;26.62;40.77;93715.81;4954820;28;7050;-62
2023/04/24 09:23:17;;;;;;;;;;;;;;;26.60;41.08;93716.34;4954423;28;7010;-62
2023/04/24 09:25:44;;;;;;;;;;;;;;;26.60;40.91;93718.38;4955051;28;7129;-62
2023/04/24 09:28:41;;;;;;;;;;;;;;;26.60;41.23;93721.13;4939056;28;7365;-62
2023/04/24 09:31:39;;;;;;;;;;;;;;;26.61;40.70;93730.88;4901210;29;9051;-62
2023/04/24 09:34:07;;;;;;;;;;;;;;;26.58;41.08;93727.16;4844920;29;7258;-61
2023/04/24 09:36:59;;;;;;;;;;;;;;;26.60;40.86;93719.09;5085006;27;6695;-62
2023/04/24 09:39:29;;;;;;;;;;;;;;;26.61;41.22;93719.84;5084364;28;9265;-62
2023/04/24 09:42:06;;;;;;;;;;;;;;;26.61;40.99;93725.34;5067260;28;7238;-62
2023/04/24 09:44:36;;;;;;;;;;;;;;;26.65;41.00;93731.28;5050581;28;9669;-62
2023/04/24 09:47:09;;;;;;;;;;;;;;;26.61;41.09;93730.88;5065889;28;9085;-61
2023/04/24 09:49:38;;;;;;;;;;;;;;;26.65;40.86;93731.28;5067190;28;7410;-62
2023/04/24 09:52:11;;;;;;;;;;;;;;;26.64;40.59;93727.06;5084265;28;9233;-62
2023/04/24 09:54:40;;;;;;;;;;;;;;;26.63;40.44;93723.56;5083753;28;7022;-62
2023/04/24 09:57:47;;;;;;;;;;;;;;;26.64;41.05;93721.53;5084053;28;7255;-62
2023/04/24 10:00:28;;;;;;;;;;;;;;;26.64;41.16;93732.59;5066729;28;7119;-61
2023/04/24 10:03:05;;;;;;;;;;;;;;;26.63;41.05;93729.06;5067209;28;9044;-61
2023/04/24 10:05:38;;;;;;;;;;;;;;;26.64;40.51;93716.03;5051623;28;9146;-62
2023/04/24 10:08:13;;;;;;;;;;;;;;;26.62;41.30;93718.59;5083863;28;7163;-62
2023/04/24 10:10:43;;;;;;;;;;;;;;;26.63;40.60;93709.75;5066683;28;7312;-61
2023/04/24 10:13:11;;;;;;;;;;;;;;;26.62;40.76;93713.78;5050915;28;8817;-62
2023/04/24 10:16:10;;;;;;;;;;;;;;;26.63;40.86;93720.81;5050673;28;7262;-62
2023/04/24 10:18:39;;;;;;;;;;;;;;;26.65;40.59;93720.25;5049702;28;7470;-62
2023/04/24 10:21:26;;;;;;;;;;;;;;;26.64;40.89;93719.50;5051031;28;7263;-62
2023/04/24 10:24:10;;;;;;;;;;;;;;;26.63;40.61;93723.56;5066600;28;9066;-62
2023/04/24 10:26:48;;;;;;;;;;;;;;;26.64;40.35;93722.28;5049323;28;7279;-62
2023/04/24 10:29:17;;;;;;;;;;;;;;;26.63;40.65;93728.31;5050874;28;9250;-62
2023/04/24 10:31:46;;;;;;;;;;;;;;;26.62;40.79;93727.56;5066002;28;7247;-62
2023/04/24 10:34:20;;;;;;;;;;;;;;;26.62;40.94;93729.63;5066135;28;7457;-62
2023/04/24 10:37:05;;;;;;;;;;;;;;;26.61;41.34;93733.63;5070116;28;7043;-62
2023/04/24 10:39:42;;;;;;;;;;;;;;;26.63;40.81;93729.06;5083935;28;7222;-62
2023/04/24 10:42:15;;;;;;;;;;;;;;;26.63;41.01;93736.59;5089572;28;7008;-62
2023/04/24 10:44:47;;;;;;;;;;;;;;;26.61;40.56;93739.91;5072350;28;7053;-62
2023/04/24 10:47:23;;;;;;;;;;;;;;;26.61;40.54;93733.63;5064807;28;9049;-62
2023/04/24 10:49:51;;;;;;;;;;;;;;;26.61;40.79;93739.16;5031283;28;8885;-62
2023/04/24 10:52:20;;;;;;;;;;;;;;;26.63;40.43;93751.13;5056082;28;8603;-62
2023/04/24 10:55:36;;;;;;;;;;;;;;;26.61;40.37;93737.16;5039234;28;7097;-62
2023/04/24 10:58:14;;;;;;;;;;;;;;;26.59;41.15;93747.97;5038815;28;8956;-62
2023/04/24 11:01:11;;;;;;;;;;;;;;;26.62;40.89;93749.66;5055988;28;8731;-62
2023/04/24 11:03:55;;;;;;;;;;;;;;;26.61;40.72;93758.47;5055359;28;8221;-62
2023/04/24 11:06:34;;;;;;;;;;;;;;;26.61;40.38;93741.91;5058389;28;7439;-62
2023/04/24 11:09:13;;;;;;;;;;;;;;;26.63;40.75;93748.38;5057561;28;7473;-62
2023/04/24 11:11:45;;;;;;;;;;;;;;;26.62;40.09;93751.69;5057716;28;7124;-62
2023/04/24 11:14:15;;;;;;;;;;;;;;;26.63;40.69;93753.91;5055891;28;7253;-62
2023/04/24 11:16:54;;;;;;;;;;;;;;;26.63;40.43;93742.88;5057010;28;7279;-62
2023/04/24 11:19:39;;;;;;;;;;;;;;;26.63;40.52;93747.63;5059079;28;8724;-62
2023/04/24 11:22:16;;;;;;;;;;;;;;;26.63;40.42;93748.38;5058720;28;9347;-62
2023/04/24 11:24:47;;;;;;;;;;;;;;;26.65;40.26;93736.81;5074099;28;7316;-62
2023/04/24 11:27:16;;;;;;;;;;;;;;;26.65;40.49;93734.03;5057714;28;9014;-62
2023/04/24 11:30:03;;;;;;;;;;;;;;;26.62;40.51;93737.88;5074194;28;9195;-62
2023/04/24 11:32:29;;;;;;;;;;;;;;;26.65;40.54;93734.03;5056492;28;7273;-62
2023/04/24 11:34:58;;;;;;;;;;;;;;;26.64;40.35;93740.84;5054671;28;8684;-62
2023/04/24 11:37:28;;;;;;;;;;;;;;;26.62;40.74;93751.69;5054194;28;7295;-62
2023/04/24 11:39:55;;;;;;;;;;;;;;;26.63;40.16;93745.63;5055858;28;7241;-62
2023/04/24 11:42:30;;;;;;;;;;;;;;;26.62;40.83;93748.94;5058312;28;7582;-62
2023/04/24 11:45:23;;;;;;;;;;;;;;;26.62;40.82;93746.88;5075856;28;7596;-62
2023/04/24 11:48:08;;;;;;;;;;;;;;;26.65;40.50;93745.09;5052467;28;7119;-62
2023/04/24 11:50:50;;;;;;;;;;;;;;;26.67;40.43;93748.78;5037805;28;6994;-62
2023/04/24 11:54:11;;;;;;;;;;;;;;;26.69;40.44;93734.47;5037896;28;9550;-61
2023/04/24 11:56:37;;;;;;;;;;;;;;;26.69;40.04;93728.94;5043536;28;7071;-61
2023/04/24 11:59:10;;;;;;;;;;;;;;;26.72;40.56;93745.19;5054621;28;7431;-61
2023/04/24 12:01:53;;;;;;;;;;;;;;;26.72;39.79;93745.19;5062089;28;7277;-61
2023/04/24 12:04:21;;;;;;;;;;;;;;;26.76;40.13;93744.88;5054454;28;7069;-61
2023/04/24 12:07:10;;;;;;;;;;;;;;;26.72;40.07;93745.19;5041412;28;7453;-61
2023/04/24 12:10:02;;;;;;;;;;;;;;;26.71;39.98;93748.47;5054607;28;9153;-61
2023/04/24 12:12:28;;;;;;;;;;;;;;;26.70;40.51;93747.75;5037244;28;9134;-62
2023/04/24 12:14:58;;;;;;;;;;;;;;;26.68;40.74;93749.53;5046504;28;9021;-62
2023/04/24 12:17:30;;;;;;;;;;;;;;;26.71;39.78;93753.97;5074443;28;7326;-62
2023/04/24 12:20:10;;;;;;;;;;;;;;;26.70;40.17;93747.75;5057577;28;7861;-61
2023/04/24 12:23:22;;;;;;;;;;;;;;;26.73;40.32;93762.53;5074176;28;7295;-61
2023/04/24 12:26:04;;;;;;;;;;;;;;;26.76;40.45;93758.69;5045554;28;8987;-62
2023/04/24 12:28:39;;;;;;;;;;;;;;;26.74;40.30;93759.22;5037617;28;9075;-61
2023/04/24 12:31:16;;;;;;;;;;;;;;;26.76;40.36;93762.19;5037729;28;7186;-61
2023/04/24 12:33:43;;;;;;;;;;;;;;;26.76;40.31;93748.38;5037000;28;7095;-61
2023/04/24 12:36:12;;;;;;;;;;;;;;;26.76;40.42;93753.91;5052859;28;7024;-62
2023/04/24 12:38:44;;;;;;;;;;;;;;;26.74;40.75;93756.47;5064731;28;9161;-61
2023/04/24 12:41:15;;;;;;;;;;;;;;;26.76;40.75;93750.41;5053719;28;7096;-61
2023/04/24 12:43:52;;;;;;;;;;;;;;;26.81;40.25;93741.28;5035896;28;7028;-62
2023/04/24 12:46:18;;;;;;;;;;;;;;;26.78;40.38;93743.06;5048200;28;9052;-62
2023/04/24 12:48:51;;;;;;;;;;;;;;;26.79;40.60;93746.59;5055316;28;7265;-61
2023/04/24 12:51:37;;;;;;;;;;;;;;;26.81;40.76;93738.50;5056592;28;7260;-61
2023/04/24 12:54:06;;;;;;;;;;;;;;;26.78;40.52;93743.06;5054757;28;7698;-62
2023/04/24 12:56:32;;;;;;;;;;;;;;;26.78;40.50;93736.81;5053451;28;7311;-61
2023/04/24 12:59:13;;;;;;;;;;;;;;;26.77;40.69;93740.84;5053424;28;7190;-61
2023/04/24 13:02:09;;;;;;;;;;;;;;;26.76;40.62;93745.63;5054775;28;8987;-62
2023/04/24 13:04:36;;;;;;;;;;;;;;;26.74;40.20;93750.19;4984630;28;9114;-62
2023/04/24 13:07:03;;;;;;;;;;;;;;;26.75;40.47;93748.94;4976488;28;7551;-62
2023/04/24 13:09:43;;;;;;;;;;;;;;;26.74;40.51;93750.94;4961802;28;7186;-62
2023/04/24 13:12:28;;;;;;;;;;;;;;;26.78;40.43;93742.31;4992957;28;9002;-62
2023/04/24 13:15:11;;;;;;;;;;;;;;;26.82;40.08;93740.72;4989584;28;9069;-62
2023/04/24 13:17:45;;;;;;;;;;;;;;;26.81;40.62;93738.50;4970208;28;8978;-61
2023/04/24 13:20:13;;;;;;;;;;;;;;;26.80;40.26;93735.00;4976388;28;9026;-61
2023/04/24 13:22:43;;;;;;;;;;;;;;;26.80;40.56;93735.00;4976750;28;9347;-61
2023/04/24 13:25:11;;;;;;;;;;;;;;;26.79;40.74;93733.53;4961826;28;9035;-61
2023/04/24 13:27:39;;;;;;;;;;;;;;;26.76;40.60;93722.81;4973221;28;7655;-62
2023/04/24 13:30:20;;;;;;;;;;;;;;;26.80;40.00;93737.00;4973383;28;7271;-62
2023/04/24 13:33:17;;;;;;;;;;;;;;;26.82;40.38;93728.94;4958138;28;7082;-62
2023/04/24 13:35:43;;;;;;;;;;;;;;;26.77;40.58;93730.53;4937767;29;7281;-61
2023/04/24 13:38:24;;;;;;;;;;;;;;;26.77;40.35;93724.31;4953706;29;7009;-61
2023/04/24 13:40:54;;;;;;;;;;;;;;;26.79;40.65;93721.75;4979277;28;7086;-61
2023/04/24 13:43:42;;;;;;;;;;;;;;;26.83;40.31;93722.91;5012151;28;9002;-62
2023/04/24 13:46:16;;;;;;;;;;;;;;;26.81;40.80;93714.44;5007125;28;9034;-61
2023/04/24 13:48:42;;;;;;;;;;;;;;;26.88;40.75;93718.53;5022803;28;8913;-62